KAKO/AKO METAR and TAF weather

Enter ICAO airport designator
Station Type Date Time Source
KAKO METAR 2020/06/06 20:53 UTC NOAA

KAKO 062053Z AUTO 18017G34KT 10SM CLR 31/08 A2979 RMK AO2 PK WND 20034/2046 LTG DSNT SE AND S SLP011 60000 T03110078 58031


Station Type Date Time Source
KAKO Decoded METAR 2020/06/06 20:53 UTC NOAA

COLORADO PLAINS REGIONAL, CO, United States (KAKO) 40-10N 103-13W 1421M
Jun 06, 2020 - 04:53 PM EDT / 2020.06.06 2053 UTC
Wind: from the S (180 degrees) at 20 MPH (17 KT) gusting to 39 MPH (34 KT):0
Visibility: 10 mile(s):0
Sky conditions: clear
Weather: Lightning observed
Temperature: 88.0 F (31.1 C)
Dew Point: 46.0 F (7.8 C)
Relative Humidity: 23%
Pressure (altimeter): 29.79 in. Hg (1008 hPa)
Pressure tendency: 0.09 inches (3.1 hPa) lower than three hours ago
ob: KAKO 062053Z AUTO 18017G34KT 10SM CLR 31/08 A2979 RMK AO2 PK WND 20034/2046 LTG DSNT SE AND S SLP011 60000 T03110078 58031
cycle: 21

Station Type Date Time Source
KAKO TAF UTC NOAA

Error!

Example: see airport list